sensor_id;sensor_type;location;lat;lon;timestamp;pressure;altitude;pressure_sealevel;temperature;humidity
9474;BME280;8865;47.636;7.692;2023-07-08T00:00:45;98213.53;;;20.52;nan
9474;BME280;8865;47.636;7.692;2023-07-08T00:03:14;98212.69;;;20.51;nan
9474;BME280;8865;47.636;7.692;2023-07-08T00:05:40;98221.91;;;20.49;nan
9474;BME280;8865;47.636;7.692;2023-07-08T00:08:17;98214.34;;;20.46;nan
9474;BME280;8865;47.636;7.692;2023-07-08T00:10:43;98204.09;;;20.43;nan
9474;BME280;8865;47.636;7.692;2023-07-08T00:13:10;98215.53;;;20.43;nan
9474;BME280;8865;47.636;7.692;2023-07-08T00:15:36;98219.41;;;20.41;nan
9474;BME280;8865;47.636;7.692;2023-07-08T00:18:14;98216.75;;;20.41;nan
9474;BME280;8865;47.636;7.692;2023-07-08T00:20:49;98222.06;;;20.41;nan
9474;BME280;8865;47.636;7.692;2023-07-08T00:23:15;98222.47;;;20.38;nan
9474;BME280;8865;47.636;7.692;2023-07-08T00:25:42;98210.81;;;20.39;nan
9474;BME280;8865;47.636;7.692;2023-07-08T00:28:11;98215.13;;;20.40;nan
9474;BME280;8865;47.636;7.692;2023-07-08T00:30:37;98224.09;;;20.39;nan
9474;BME280;8865;47.636;7.692;2023-07-08T00:33:05;98213.88;;;20.36;nan
9474;BME280;8865;47.636;7.692;2023-07-08T00:35:34;98219.38;;;20.34;nan
9474;BME280;8865;47.636;7.692;2023-07-08T00:38:21;98230.81;;;20.34;nan
9474;BME280;8865;47.636;7.692;2023-07-08T00:40:59;98226.94;;;20.30;nan
9474;BME280;8865;47.636;7.692;2023-07-08T00:43:39;98216.09;;;20.32;nan
9474;BME280;8865;47.636;7.692;2023-07-08T00:48:45;98210.78;;;20.32;nan
9474;BME280;8865;47.636;7.692;2023-07-08T00:51:11;98214.06;;;20.34;nan
9474;BME280;8865;47.636;7.692;2023-07-08T00:53:38;98214.25;;;20.32;nan
9474;BME280;8865;47.636;7.692;2023-07-08T00:56:12;98225.69;;;20.33;nan
9474;BME280;8865;47.636;7.692;2023-07-08T00:58:47;98235.13;;;20.36;nan
9474;BME280;8865;47.636;7.692;2023-07-08T01:01:15;98229.44;;;20.39;nan
9474;BME280;8865;47.636;7.692;2023-07-08T01:03:54;98231.91;;;20.40;nan
9474;BME280;8865;47.636;7.692;2023-07-08T01:06:22;98233.09;;;20.38;nan
9474;BME280;8865;47.636;7.692;2023-07-08T01:08:49;98242.53;;;20.40;nan
9474;BME280;8865;47.636;7.692;2023-07-08T01:11:20;98251.78;;;20.44;nan
9474;BME280;8865;47.636;7.692;2023-07-08T01:13:48;98255.06;;;20.46;nan
9474;BME280;8865;47.636;7.692;2023-07-08T01:16:16;98248.72;;;20.47;nan
9474;BME280;8865;47.636;7.692;2023-07-08T01:18:43;98256.50;;;20.49;nan
9474;BME280;8865;47.636;7.692;2023-07-08T01:21:32;98278.22;;;20.52;nan
9474;BME280;8865;47.636;7.692;2023-07-08T01:24:00;98275.59;;;20.59;nan
9474;BME280;8865;47.636;7.692;2023-07-08T01:26:27;98269.94;;;20.69;nan
9474;BME280;8865;47.636;7.692;2023-07-08T01:28:55;98280.81;;;20.74;nan
9474;BME280;8865;47.636;7.692;2023-07-08T01:31:22;98297.59;;;20.75;nan
9474;BME280;8865;47.636;7.692;2023-07-08T01:33:49;98294.31;;;20.73;nan
9474;BME280;8865;47.636;7.692;2023-07-08T01:36:17;98286.94;;;20.68;nan
9474;BME280;8865;47.636;7.692;2023-07-08T01:38:44;98286.94;;;20.68;nan
9474;BME280;8865;47.636;7.692;2023-07-08T01:41:13;98286.47;;;20.64;nan
9474;BME280;8865;47.636;7.692;2023-07-08T01:43:39;98295.91;;;20.67;nan
9474;BME280;8865;47.636;7.692;2023-07-08T01:46:31;98290.78;;;20.65;nan
9474;BME280;8865;47.636;7.692;2023-07-08T01:48:59;98307.22;;;20.69;nan
9474;BME280;8865;47.636;7.692;2023-07-08T01:51:27;98326.03;;;20.67;nan
9474;BME280;8865;47.636;7.692;2023-07-08T01:53:53;98333.94;;;20.61;nan
9474;BME280;8865;47.636;7.692;2023-07-08T01:56:19;98370.00;;;20.63;nan
9474;BME280;8865;47.636;7.692;2023-07-08T01:58:45;98351.34;;;20.63;nan
9474;BME280;8865;47.636;7.692;2023-07-08T02:01:11;98346.94;;;20.71;nan
9474;BME280;8865;47.636;7.692;2023-07-08T02:03:37;98356.63;;;20.85;nan
9474;BME280;8865;47.636;7.692;2023-07-08T02:06:06;98359.97;;;20.94;nan
9474;BME280;8865;47.636;7.692;2023-07-08T02:08:32;98365.31;;;20.94;nan
9474;BME280;8865;47.636;7.692;2023-07-08T02:10:58;98379.63;;;20.93;nan
9474;BME280;8865;47.636;7.692;2023-07-08T02:13:25;98378.56;;;20.87;nan
9474;BME280;8865;47.636;7.692;2023-07-08T02:15:51;98379.50;;;20.73;nan
9474;BME280;8865;47.636;7.692;2023-07-08T02:18:17;98388.06;;;20.68;nan
9474;BME280;8865;47.636;7.692;2023-07-08T02:20:46;98412.75;;;20.62;nan
9474;BME280;8865;47.636;7.692;2023-07-08T02:23:14;98431.78;;;20.59;nan
9474;BME280;8865;47.636;7.692;2023-07-08T02:25:40;98448.50;;;20.52;nan
9474;BME280;8865;47.636;7.692;2023-07-08T02:28:06;98447.81;;;20.44;nan
9474;BME280;8865;47.636;7.692;2023-07-08T02:30:32;98455.97;;;20.42;nan
9474;BME280;8865;47.636;7.692;2023-07-08T02:32:58;98463.09;;;20.35;nan
9474;BME280;8865;47.636;7.692;2023-07-08T02:35:28;98466.53;;;20.29;nan
9474;BME280;8865;47.636;7.692;2023-07-08T02:37:56;98483.44;;;20.21;nan
9474;BME280;8865;47.636;7.692;2023-07-08T02:40:23;98476.50;;;20.05;nan
9474;BME280;8865;47.636;7.692;2023-07-08T02:42:50;98487.81;;;19.92;nan
9474;BME280;8865;47.636;7.692;2023-07-08T02:45:16;98500.25;;;19.92;nan
9474;BME280;8865;47.636;7.692;2023-07-08T02:47:43;98538.13;;;19.94;nan
9474;BME280;8865;47.636;7.692;2023-07-08T02:50:10;98569.75;;;19.89;nan
9474;BME280;8865;47.636;7.692;2023-07-08T02:52:36;98580.84;;;19.77;nan
9474;BME280;8865;47.636;7.692;2023-07-08T02:55:02;98588.34;;;19.74;nan
9474;BME280;8865;47.636;7.692;2023-07-08T02:57:28;98588.72;;;19.71;nan
9474;BME280;8865;47.636;7.692;2023-07-08T02:59:54;98570.75;;;19.43;nan
9474;BME280;8865;47.636;7.692;2023-07-08T03:02:21;98561.00;;;19.50;nan
9474;BME280;8865;47.636;7.692;2023-07-08T03:04:48;98555.34;;;19.38;nan
9474;BME280;8865;47.636;7.692;2023-07-08T03:07:16;98549.00;;;19.39;nan
9474;BME280;8865;47.636;7.692;2023-07-08T03:09:43;98558.72;;;19.47;nan
9474;BME280;8865;47.636;7.692;2023-07-08T03:12:10;98564.97;;;19.54;nan
9474;BME280;8865;47.636;7.692;2023-07-08T03:14:36;98558.28;;;19.58;nan
9474;BME280;8865;47.636;7.692;2023-07-08T03:17:03;98564.88;;;19.62;nan
9474;BME280;8865;47.636;7.692;2023-07-08T03:19:29;98558.66;;;19.55;nan
9474;BME280;8865;47.636;7.692;2023-07-08T03:21:55;98545.72;;;19.37;nan
9474;BME280;8865;47.636;7.692;2023-07-08T03:24:22;98555.53;;;19.37;nan
9474;BME280;8865;47.636;7.692;2023-07-08T03:26:47;98567.50;;;19.33;nan
9474;BME280;8865;47.636;7.692;2023-07-08T03:29:18;98581.41;;;19.35;nan
9474;BME280;8865;47.636;7.692;2023-07-08T03:31:44;98598.56;;;19.32;nan
9474;BME280;8865;47.636;7.692;2023-07-08T03:34:15;98605.22;;;19.28;nan
9474;BME280;8865;47.636;7.692;2023-07-08T03:36:47;98625.59;;;19.13;nan
9474;BME280;8865;47.636;7.692;2023-07-08T03:39:16;98638.88;;;19.13;nan
9474;BME280;8865;47.636;7.692;2023-07-08T03:41:45;98648.88;;;19.11;nan
9474;BME280;8865;47.636;7.692;2023-07-08T03:44:12;98660.03;;;19.06;nan
9474;BME280;8865;47.636;7.692;2023-07-08T03:46:38;98669.25;;;19.10;nan
9474;BME280;8865;47.636;7.692;2023-07-08T03:49:06;98688.69;;;19.11;nan
9474;BME280;8865;47.636;7.692;2023-07-08T03:51:35;98699.97;;;19.13;nan
9474;BME280;8865;47.636;7.692;2023-07-08T03:54:03;98704.09;;;19.15;nan
9474;BME280;8865;47.636;7.692;2023-07-08T03:56:29;98731.13;;;19.19;nan
9474;BME280;8865;47.636;7.692;2023-07-08T03:58:55;98748.03;;;19.18;nan
9474;BME280;8865;47.636;7.692;2023-07-08T04:01:23;98774.59;;;19.18;nan
9474;BME280;8865;47.636;7.692;2023-07-08T04:03:52;98789.41;;;19.12;nan
9474;BME280;8865;47.636;7.692;2023-07-08T04:06:18;98788.09;;;19.08;nan
9474;BME280;8865;47.636;7.692;2023-07-08T04:08:45;98791.56;;;19.08;nan
9474;BME280;8865;47.636;7.692;2023-07-08T04:11:13;98784.09;;;19.12;nan
9474;BME280;8865;47.636;7.692;2023-07-08T04:13:40;98791.06;;;19.13;nan
9474;BME280;8865;47.636;7.692;2023-07-08T04:16:07;98798.19;;;19.13;nan
9474;BME280;8865;47.636;7.692;2023-07-08T04:18:34;98799.19;;;19.12;nan
9474;BME280;8865;47.636;7.692;2023-07-08T04:21:02;98793.94;;;19.03;nan
9474;BME280;8865;47.636;7.692;2023-07-08T04:23:28;98807.69;;;19.07;nan
9474;BME280;8865;47.636;7.692;2023-07-08T04:25:55;98811.47;;;19.13;nan
9474;BME280;8865;47.636;7.692;2023-07-08T04:28:21;98806.63;;;19.16;nan
9474;BME280;8865;47.636;7.692;2023-07-08T04:30:47;98806.13;;;19.21;nan
9474;BME280;8865;47.636;7.692;2023-07-08T04:33:14;98807.94;;;19.20;nan
9474;BME280;8865;47.636;7.692;2023-07-08T04:35:42;98808.94;;;19.19;nan
9474;BME280;8865;47.636;7.692;2023-07-08T04:38:27;98818.41;;;19.22;nan
9474;BME280;8865;47.636;7.692;2023-07-08T04:40:53;98821.06;;;19.22;nan
9474;BME280;8865;47.636;7.692;2023-07-08T04:43:21;98803.78;;;19.26;nan
9474;BME280;8865;47.636;7.692;2023-07-08T04:45:50;98792.47;;;19.24;nan
9474;BME280;8865;47.636;7.692;2023-07-08T04:48:18;98780.06;;;19.24;nan
9474;BME280;8865;47.636;7.692;2023-07-08T04:50:49;98764.47;;;19.21;nan
9474;BME280;8865;47.636;7.692;2023-07-08T04:53:17;98755.06;;;19.11;nan
9474;BME280;8865;47.636;7.692;2023-07-08T04:55:56;98745.69;;;19.00;nan
9474;BME280;8865;47.636;7.692;2023-07-08T04:58:22;98750.03;;;18.92;nan
9474;BME280;8865;47.636;7.692;2023-07-08T05:00:48;98751.19;;;18.90;nan
9474;BME280;8865;47.636;7.692;2023-07-08T05:03:14;98762.09;;;18.95;nan
9474;BME280;8865;47.636;7.692;2023-07-08T05:05:40;98747.03;;;18.87;nan
9474;BME280;8865;47.636;7.692;2023-07-08T05:08:07;98751.81;;;18.92;nan
9474;BME280;8865;47.636;7.692;2023-07-08T05:10:33;98753.84;;;18.90;nan
9474;BME280;8865;47.636;7.692;2023-07-08T05:13:00;98754.34;;;18.85;nan
9474;BME280;8865;47.636;7.692;2023-07-08T05:15:26;98755.16;;;18.94;nan
9474;BME280;8865;47.636;7.692;2023-07-08T05:17:52;98764.72;;;19.03;nan
9474;BME280;8865;47.636;7.692;2023-07-08T05:20:18;98766.88;;;19.08;nan
9474;BME280;8865;47.636;7.692;2023-07-08T05:22:46;98773.16;;;19.07;nan
9474;BME280;8865;47.636;7.692;2023-07-08T05:25:13;98770.34;;;19.08;nan
9474;BME280;8865;47.636;7.692;2023-07-08T05:27:39;98770.03;;;19.03;nan
9474;BME280;8865;47.636;7.692;2023-07-08T05:30:06;98767.56;;;19.02;nan
9474;BME280;8865;47.636;7.692;2023-07-08T05:32:33;98757.06;;;19.08;nan
9474;BME280;8865;47.636;7.692;2023-07-08T05:34:59;98758.19;;;19.14;nan
9474;BME280;8865;47.636;7.692;2023-07-08T05:37:25;98759.16;;;19.21;nan
9474;BME280;8865;47.636;7.692;2023-07-08T05:39:54;98761.28;;;19.26;nan
9474;BME280;8865;47.636;7.692;2023-07-08T05:42:21;98755.44;;;19.31;nan
9474;BME280;8865;47.636;7.692;2023-07-08T05:44:47;98759.63;;;19.25;nan
9474;BME280;8865;47.636;7.692;2023-07-08T05:47:14;98749.59;;;19.12;nan
9474;BME280;8865;47.636;7.692;2023-07-08T05:49:41;98759.50;;;18.87;nan
9474;BME280;8865;47.636;7.692;2023-07-08T05:52:07;98757.75;;;19.02;nan
9474;BME280;8865;47.636;7.692;2023-07-08T05:54:37;98763.50;;;19.14;nan
9474;BME280;8865;47.636;7.692;2023-07-08T05:57:06;98763.44;;;19.22;nan
9474;BME280;8865;47.636;7.692;2023-07-08T05:59:32;98754.38;;;19.17;nan
9474;BME280;8865;47.636;7.692;2023-07-08T06:01:58;98745.34;;;19.26;nan
9474;BME280;8865;47.636;7.692;2023-07-08T06:04:24;98736.97;;;19.37;nan
9474;BME280;8865;47.636;7.692;2023-07-08T06:06:50;98737.38;;;19.49;nan
9474;BME280;8865;47.636;7.692;2023-07-08T06:09:16;98731.53;;;19.54;nan
9474;BME280;8865;47.636;7.692;2023-07-08T06:11:42;98730.69;;;19.53;nan
9474;BME280;8865;47.636;7.692;2023-07-08T06:14:08;98728.88;;;19.54;nan
9474;BME280;8865;47.636;7.692;2023-07-08T06:16:34;98723.03;;;19.73;nan
9474;BME280;8865;47.636;7.692;2023-07-08T06:19:00;98725.13;;;19.86;nan
9474;BME280;8865;47.636;7.692;2023-07-08T06:21:26;98719.56;;;19.73;nan
9474;BME280;8865;47.636;7.692;2023-07-08T06:23:52;98719.16;;;19.84;nan
9474;BME280;8865;47.636;7.692;2023-07-08T06:26:18;98711.41;;;19.74;nan
9474;BME280;8865;47.636;7.692;2023-07-08T06:28:44;98718.41;;;19.75;nan
9474;BME280;8865;47.636;7.692;2023-07-08T06:31:10;98710.91;;;19.79;nan
9474;BME280;8865;47.636;7.692;2023-07-08T06:33:36;98719.06;;;19.77;nan
9474;BME280;8865;47.636;7.692;2023-07-08T06:36:02;98703.81;;;19.71;nan
9474;BME280;8865;47.636;7.692;2023-07-08T06:38:29;98716.44;;;19.92;nan
9474;BME280;8865;47.636;7.692;2023-07-08T06:40:55;98717.81;;;19.88;nan
9474;BME280;8865;47.636;7.692;2023-07-08T06:43:21;98702.66;;;19.89;nan
9474;BME280;8865;47.636;7.692;2023-07-08T06:45:47;98705.72;;;20.01;nan
9474;BME280;8865;47.636;7.692;2023-07-08T06:48:13;98717.91;;;20.10;nan
9474;BME280;8865;47.636;7.692;2023-07-08T06:50:42;98717.38;;;20.14;nan
9474;BME280;8865;47.636;7.692;2023-07-08T06:53:08;98701.03;;;20.17;nan
9474;BME280;8865;47.636;7.692;2023-07-08T06:55:35;98701.53;;;20.21;nan
9474;BME280;8865;47.636;7.692;2023-07-08T06:58:01;98682.72;;;20.23;nan
9474;BME280;8865;47.636;7.692;2023-07-08T07:00:27;98682.53;;;20.24;nan
9474;BME280;8865;47.636;7.692;2023-07-08T07:02:53;98683.91;;;20.20;nan
9474;BME280;8865;47.636;7.692;2023-07-08T07:05:19;98687.94;;;20.16;nan
9474;BME280;8865;47.636;7.692;2023-07-08T07:07:44;98697.94;;;20.14;nan
9474;BME280;8865;47.636;7.692;2023-07-08T07:10:10;98688.28;;;20.13;nan
9474;BME280;8865;47.636;7.692;2023-07-08T07:12:37;98683.72;;;20.07;nan
9474;BME280;8865;47.636;7.692;2023-07-08T07:15:04;98675.66;;;20.00;nan
9474;BME280;8865;47.636;7.692;2023-07-08T07:17:30;98683.81;;;19.98;nan
9474;BME280;8865;47.636;7.692;2023-07-08T07:19:56;98681.50;;;19.95;nan
9474;BME280;8865;47.636;7.692;2023-07-08T07:22:23;98680.03;;;19.93;nan
9474;BME280;8865;47.636;7.692;2023-07-08T07:24:49;98675.53;;;19.93;nan
9474;BME280;8865;47.636;7.692;2023-07-08T07:27:15;98673.72;;;19.94;nan
9474;BME280;8865;47.636;7.692;2023-07-08T07:29:47;98670.94;;;19.87;nan
9474;BME280;8865;47.636;7.692;2023-07-08T07:32:14;98663.16;;;19.86;nan
9474;BME280;8865;47.636;7.692;2023-07-08T07:34:41;98665.25;;;19.90;nan
9474;BME280;8865;47.636;7.692;2023-07-08T07:37:12;98658.94;;;19.91;nan
9474;BME280;8865;47.636;7.692;2023-07-08T07:39:39;98653.91;;;19.96;nan
9474;BME280;8865;47.636;7.692;2023-07-08T07:42:05;98650.25;;;19.97;nan
9474;BME280;8865;47.636;7.692;2023-07-08T07:44:32;98651.91;;;20.13;nan
9474;BME280;8865;47.636;7.692;2023-07-08T07:46:58;98652.06;;;20.27;nan
9474;BME280;8865;47.636;7.692;2023-07-08T07:49:24;98646.84;;;20.33;nan
9474;BME280;8865;47.636;7.692;2023-07-08T07:51:50;98645.72;;;20.43;nan
9474;BME280;8865;47.636;7.692;2023-07-08T07:54:16;98631.41;;;20.44;nan
9474;BME280;8865;47.636;7.692;2023-07-08T07:56:42;98628.72;;;20.44;nan
9474;BME280;8865;47.636;7.692;2023-07-08T07:59:10;98622.47;;;20.51;nan
9474;BME280;8865;47.636;7.692;2023-07-08T08:01:37;98615.06;;;20.47;nan
9474;BME280;8865;47.636;7.692;2023-07-08T08:04:03;98614.31;;;20.53;nan
9474;BME280;8865;47.636;7.692;2023-07-08T08:06:29;98616.03;;;20.61;nan
9474;BME280;8865;47.636;7.692;2023-07-08T08:08:55;98617.78;;;20.68;nan
9474;BME280;8865;47.636;7.692;2023-07-08T08:11:22;98606.84;;;20.78;nan
9474;BME280;8865;47.636;7.692;2023-07-08T08:13:48;98596.25;;;20.85;nan
9474;BME280;8865;47.636;7.692;2023-07-08T08:16:15;98597.56;;;20.96;nan
9474;BME280;8865;47.636;7.692;2023-07-08T08:18:41;98589.41;;;20.97;nan
9474;BME280;8865;47.636;7.692;2023-07-08T08:21:07;98574.75;;;21.08;nan
9474;BME280;8865;47.636;7.692;2023-07-08T08:23:32;98576.72;;;21.21;nan
9474;BME280;8865;47.636;7.692;2023-07-08T08:25:58;98571.47;;;21.34;nan
9474;BME280;8865;47.636;7.692;2023-07-08T08:28:25;98564.13;;;21.36;nan
9474;BME280;8865;47.636;7.692;2023-07-08T08:30:51;98560.03;;;21.40;nan
9474;BME280;8865;47.636;7.692;2023-07-08T08:33:18;98554.50;;;21.42;nan
9474;BME280;8865;47.636;7.692;2023-07-08T08:35:44;98559.88;;;21.49;nan
9474;BME280;8865;47.636;7.692;2023-07-08T08:38:10;98548.28;;;21.56;nan
9474;BME280;8865;47.636;7.692;2023-07-08T08:40:39;98553.72;;;21.76;nan
9474;BME280;8865;47.636;7.692;2023-07-08T08:43:17;98557.06;;;21.92;nan
9474;BME280;8865;47.636;7.692;2023-07-08T08:45:54;98544.56;;;21.99;nan
9474;BME280;8865;47.636;7.692;2023-07-08T08:48:21;98532.03;;;21.93;nan
9474;BME280;8865;47.636;7.692;2023-07-08T08:50:58;98546.28;;;22.14;nan
9474;BME280;8865;47.636;7.692;2023-07-08T08:53:28;98550.50;;;22.36;nan
9474;BME280;8865;47.636;7.692;2023-07-08T08:56:09;98560.22;;;22.64;nan
9474;BME280;8865;47.636;7.692;2023-07-08T08:58:45;98544.41;;;22.82;nan
9474;BME280;8865;47.636;7.692;2023-07-08T09:01:15;98539.47;;;23.06;nan
9474;BME280;8865;47.636;7.692;2023-07-08T09:06:30;98536.16;;;23.58;nan
9474;BME280;8865;47.636;7.692;2023-07-08T09:09:04;98542.44;;;23.83;nan
9474;BME280;8865;47.636;7.692;2023-07-08T09:14:26;98527.81;;;23.99;nan
9474;BME280;8865;47.636;7.692;2023-07-08T09:19:45;98523.91;;;24.40;nan
9474;BME280;8865;47.636;7.692;2023-07-08T09:24:51;98523.06;;;25.04;nan
9474;BME280;8865;47.636;7.692;2023-07-08T09:27:20;98516.75;;;25.17;nan
9474;BME280;8865;47.636;7.692;2023-07-08T09:29:46;98516.00;;;25.28;nan
9474;BME280;8865;47.636;7.692;2023-07-08T09:32:24;98514.59;;;25.25;nan
9474;BME280;8865;47.636;7.692;2023-07-08T09:35:05;98523.06;;;25.29;nan
9474;BME280;8865;47.636;7.692;2023-07-08T09:37:37;98526.50;;;25.36;nan
9474;BME280;8865;47.636;7.692;2023-07-08T09:40:19;98519.66;;;25.40;nan
9474;BME280;8865;47.636;7.692;2023-07-08T09:42:52;98523.59;;;25.38;nan
9474;BME280;8865;47.636;7.692;2023-07-08T09:45:22;98521.94;;;25.37;nan
9474;BME280;8865;47.636;7.692;2023-07-08T09:47:53;98522.94;;;25.42;nan
9474;BME280;8865;47.636;7.692;2023-07-08T09:50:29;98525.03;;;25.59;nan
9474;BME280;8865;47.636;7.692;2023-07-08T09:52:58;98522.03;;;25.67;nan
9474;BME280;8865;47.636;7.692;2023-07-08T09:55:27;98522.59;;;25.32;nan
9474;BME280;8865;47.636;7.692;2023-07-08T09:57:56;98532.41;;;25.45;nan
9474;BME280;8865;47.636;7.692;2023-07-08T10:00:31;98526.97;;;25.52;nan
9474;BME280;8865;47.636;7.692;2023-07-08T10:03:04;98520.78;;;25.70;nan
9474;BME280;8865;47.636;7.692;2023-07-08T10:05:35;98522.25;;;25.84;nan
9474;BME280;8865;47.636;7.692;2023-07-08T10:08:14;98522.84;;;26.05;nan
9474;BME280;8865;47.636;7.692;2023-07-08T10:10:41;98517.88;;;25.90;nan
9474;BME280;8865;47.636;7.692;2023-07-08T10:13:29;98517.59;;;26.28;nan
9474;BME280;8865;47.636;7.692;2023-07-08T10:16:13;98517.91;;;26.93;nan
9474;BME280;8865;47.636;7.692;2023-07-08T10:18:40;98515.34;;;27.33;nan
9474;BME280;8865;47.636;7.692;2023-07-08T10:26:28;98507.31;;;28.89;nan
9474;BME280;8865;47.636;7.692;2023-07-08T10:34:17;98499.16;;;30.01;nan
9474;BME280;8865;47.636;7.692;2023-07-08T10:37:05;98500.22;;;30.00;nan
9474;BME280;8865;47.636;7.692;2023-07-08T10:42:52;98499.56;;;29.93;nan
9474;BME280;8865;47.636;7.692;2023-07-08T10:45:39;98506.75;;;29.82;nan
9474;BME280;8865;47.636;7.692;2023-07-08T10:48:22;98503.66;;;29.73;nan
9474;BME280;8865;47.636;7.692;2023-07-08T10:51:19;98506.66;;;29.77;nan
9474;BME280;8865;47.636;7.692;2023-07-08T10:56:54;98509.50;;;29.26;nan
9474;BME280;8865;47.636;7.692;2023-07-08T11:02:43;98510.75;;;28.67;nan
9474;BME280;8865;47.636;7.692;2023-07-08T11:07:53;98506.38;;;28.21;nan
9474;BME280;8865;47.636;7.692;2023-07-08T11:10:29;98506.00;;;28.00;nan
9474;BME280;8865;47.636;7.692;2023-07-08T11:18:06;98509.47;;;27.60;nan
9474;BME280;8865;47.636;7.692;2023-07-08T11:20:52;98502.69;;;27.46;nan
9474;BME280;8865;47.636;7.692;2023-07-08T11:23:41;98506.91;;;27.53;nan
9474;BME280;8865;47.636;7.692;2023-07-08T11:26:29;98505.53;;;27.51;nan
9474;BME280;8865;47.636;7.692;2023-07-08T11:28:59;98497.56;;;27.56;nan
9474;BME280;8865;47.636;7.692;2023-07-08T11:31:27;98499.50;;;27.72;nan
9474;BME280;8865;47.636;7.692;2023-07-08T11:33:55;98500.78;;;27.82;nan
9474;BME280;8865;47.636;7.692;2023-07-08T11:36:23;98506.72;;;27.84;nan
9474;BME280;8865;47.636;7.692;2023-07-08T11:38:55;98503.09;;;27.78;nan
9474;BME280;8865;47.636;7.692;2023-07-08T11:41:24;98497.88;;;27.71;nan
9474;BME280;8865;47.636;7.692;2023-07-08T11:43:59;98499.66;;;27.94;nan
9474;BME280;8865;47.636;7.692;2023-07-08T11:46:30;98502.63;;;28.22;nan
9474;BME280;8865;47.636;7.692;2023-07-08T11:49:02;98497.78;;;28.53;nan
9474;BME280;8865;47.636;7.692;2023-07-08T11:51:32;98493.72;;;28.67;nan
9474;BME280;8865;47.636;7.692;2023-07-08T11:54:11;98494.72;;;28.95;nan
9474;BME280;8865;47.636;7.692;2023-07-08T11:57:07;98494.22;;;28.81;nan
9474;BME280;8865;47.636;7.692;2023-07-08T11:59:37;98490.78;;;28.68;nan
9474;BME280;8865;47.636;7.692;2023-07-08T12:02:12;98499.53;;;28.59;nan
9474;BME280;8865;47.636;7.692;2023-07-08T12:04:59;98490.72;;;28.63;nan
9474;BME280;8865;47.636;7.692;2023-07-08T12:07:41;98494.41;;;28.74;nan
9474;BME280;8865;47.636;7.692;2023-07-08T12:10:26;98496.34;;;28.96;nan
9474;BME280;8865;47.636;7.692;2023-07-08T12:12:53;98484.09;;;29.05;nan
9474;BME280;8865;47.636;7.692;2023-07-08T12:15:26;98489.53;;;29.66;nan
9474;BME280;8865;47.636;7.692;2023-07-08T12:17:56;98493.72;;;30.51;nan
9474;BME280;8865;47.636;7.692;2023-07-08T12:20:32;98490.06;;;30.67;nan
9474;BME280;8865;47.636;7.692;2023-07-08T12:22:59;98486.41;;;31.69;nan
9474;BME280;8865;47.636;7.692;2023-07-08T12:25:33;98481.69;;;33.25;nan
9474;BME280;8865;47.636;7.692;2023-07-08T12:28:03;98478.47;;;33.89;nan
9474;BME280;8865;47.636;7.692;2023-07-08T12:30:30;98477.78;;;36.07;nan
9474;BME280;8865;47.636;7.692;2023-07-08T12:32:58;98471.28;;;37.07;nan
9474;BME280;8865;47.636;7.692;2023-07-08T12:35:32;98469.47;;;36.70;nan
9474;BME280;8865;47.636;7.692;2023-07-08T12:38:03;98466.44;;;37.32;nan
9474;BME280;8865;47.636;7.692;2023-07-08T12:40:30;98458.44;;;36.61;nan
9474;BME280;8865;47.636;7.692;2023-07-08T12:42:57;98469.00;;;36.49;nan
9474;BME280;8865;47.636;7.692;2023-07-08T12:45:28;98468.50;;;36.46;nan
9474;BME280;8865;47.636;7.692;2023-07-08T12:47:55;98459.38;;;36.37;nan
9474;BME280;8865;47.636;7.692;2023-07-08T12:50:21;98456.59;;;35.61;nan
9474;BME280;8865;47.636;7.692;2023-07-08T12:52:47;98455.00;;;34.82;nan
9474;BME280;8865;47.636;7.692;2023-07-08T12:55:15;98455.31;;;35.78;nan
9474;BME280;8865;47.636;7.692;2023-07-08T12:57:44;98440.56;;;36.36;nan
9474;BME280;8865;47.636;7.692;2023-07-08T13:00:32;98445.09;;;37.06;nan
9474;BME280;8865;47.636;7.692;2023-07-08T13:03:15;98445.91;;;37.34;nan
9474;BME280;8865;47.636;7.692;2023-07-08T13:05:44;98441.22;;;36.93;nan
9474;BME280;8865;47.636;7.692;2023-07-08T13:08:14;98438.53;;;36.60;nan
9474;BME280;8865;47.636;7.692;2023-07-08T13:10:42;98437.50;;;35.61;nan
9474;BME280;8865;47.636;7.692;2023-07-08T13:13:16;98435.03;;;34.28;nan
9474;BME280;8865;47.636;7.692;2023-07-08T13:15:43;98433.13;;;33.24;nan
9474;BME280;8865;47.636;7.692;2023-07-08T13:18:22;98440.47;;;32.92;nan
9474;BME280;8865;47.636;7.692;2023-07-08T13:20:52;98431.03;;;32.80;nan
9474;BME280;8865;47.636;7.692;2023-07-08T13:23:21;98428.31;;;33.60;nan
9474;BME280;8865;47.636;7.692;2023-07-08T13:25:48;98425.06;;;34.13;nan
9474;BME280;8865;47.636;7.692;2023-07-08T13:30:54;98421.34;;;34.68;nan
9474;BME280;8865;47.636;7.692;2023-07-08T13:33:21;98422.59;;;34.51;nan
9474;BME280;8865;47.636;7.692;2023-07-08T13:35:48;98417.81;;;34.38;nan
9474;BME280;8865;47.636;7.692;2023-07-08T13:38:21;98415.97;;;34.63;nan
9474;BME280;8865;47.636;7.692;2023-07-08T13:40:49;98409.44;;;34.29;nan
9474;BME280;8865;47.636;7.692;2023-07-08T13:43:23;98417.53;;;34.69;nan
9474;BME280;8865;47.636;7.692;2023-07-08T13:45:50;98405.72;;;34.84;nan
9474;BME280;8865;47.636;7.692;2023-07-08T13:48:36;98413.66;;;34.80;nan
9474;BME280;8865;47.636;7.692;2023-07-08T13:51:25;98411.34;;;34.93;nan
9474;BME280;8865;47.636;7.692;2023-07-08T13:53:59;98407.91;;;35.06;nan
9474;BME280;8865;47.636;7.692;2023-07-08T13:56:33;98414.19;;;35.07;nan
9474;BME280;8865;47.636;7.692;2023-07-08T14:01:29;98401.00;;;34.65;nan
9474;BME280;8865;47.636;7.692;2023-07-08T14:03:57;98401.16;;;34.79;nan
9474;BME280;8865;47.636;7.692;2023-07-08T14:06:27;98390.84;;;35.00;nan
9474;BME280;8865;47.636;7.692;2023-07-08T14:08:57;98396.75;;;34.83;nan
9474;BME280;8865;47.636;7.692;2023-07-08T14:11:24;98396.13;;;34.92;nan
9474;BME280;8865;47.636;7.692;2023-07-08T14:13:50;98397.75;;;34.93;nan
9474;BME280;8865;47.636;7.692;2023-07-08T14:16:23;98398.47;;;34.98;nan
9474;BME280;8865;47.636;7.692;2023-07-08T14:18:51;98390.78;;;35.05;nan
9474;BME280;8865;47.636;7.692;2023-07-08T14:21:17;98388.13;;;35.00;nan
9474;BME280;8865;47.636;7.692;2023-07-08T14:23:44;98400.00;;;34.85;nan
9474;BME280;8865;47.636;7.692;2023-07-08T14:26:11;98395.47;;;34.70;nan
9474;BME280;8865;47.636;7.692;2023-07-08T14:28:37;98393.34;;;34.67;nan
9474;BME280;8865;47.636;7.692;2023-07-08T14:31:09;98390.41;;;34.59;nan
9474;BME280;8865;47.636;7.692;2023-07-08T14:33:36;98390.19;;;34.55;nan
9474;BME280;8865;47.636;7.692;2023-07-08T14:36:02;98391.00;;;34.26;nan
9474;BME280;8865;47.636;7.692;2023-07-08T14:38:29;98389.00;;;34.37;nan
9474;BME280;8865;47.636;7.692;2023-07-08T14:40:55;98389.69;;;34.53;nan
9474;BME280;8865;47.636;7.692;2023-07-08T14:43:26;98394.28;;;34.52;nan